Paynton, Canada
Current Conditions -  °F | °C
As of 6:00 PM on Saturday 25 Oct 2014 (Local Time) from CYQW Reporting Station
Clear Clear  
Wind Chill: 40°   Ceiling: Unl
Heat Index: 45°   Visibility: 9mi
Dew Point: 27°   Wind: 8mph
Humidity: 49%   Direction: 90°E
Pressure: 29.91"   Gusts: NA
Location:  53.02°N, 108.95°W
Report Text: CYQW 252300Z AUTO 09007KT 9SM CLR 07/M03 A2991 RMK PRESFR SLP150
Loading
Personal Weather Stations






























Interactive Weather Map
Tropical Storm Tracking
New forecast layout! Learn more

10-Day Weather Forecast

Advertisements
Track Severe Weather on mobile